Time;durP1;ratioP1;P1;durP2;ratioP2;P2;SDS_P1;SDS_P2;PMS_P1;PMS_P2;Temp;Humidity;BMP_temperature;BMP_pressure;BME280_temperature;BME280_humidity;BME280_pressure;Samples;Min_cycle;Max_cycle;Signal;HPM_P1;HPM_P2
2022/02/07 00:01:18;;;;;;;2.15;0.45;;;2.30;99.90;;;;;;6218651;23;20136;-59
2022/02/07 00:03:52;;;;;;;1.15;0.40;;;2.30;99.90;;;;;;6217820;23;20204;-60
2022/02/07 00:06:17;;;;;;;2.47;0.40;;;2.30;99.90;;;;;;6218214;23;20160;-61
2022/02/07 00:08:43;;;;;;;0.82;0.57;;;2.20;99.90;;;;;;6217464;23;20560;-61
2022/02/07 00:11:09;;;;;;;2.25;0.70;;;2.20;99.90;;;;;;6217931;23;20145;-61
2022/02/07 00:13:34;;;;;;;1.52;0.50;;;2.20;99.90;;;;;;6217383;23;20584;-61
2022/02/07 00:16:00;;;;;;;1.05;0.40;;;2.20;99.90;;;;;;6217347;23;20153;-61
2022/02/07 00:18:26;;;;;;;4.07;0.40;;;2.20;99.90;;;;;;6217386;23;20473;-62
2022/02/07 00:20:51;;;;;;;1.27;0.60;;;2.20;99.90;;;;;;6217802;23;20497;-61
2022/02/07 00:23:17;;;;;;;0.35;0.20;;;2.20;99.90;;;;;;6217733;23;20149;-61
2022/02/07 00:25:43;;;;;;;1.98;0.32;;;2.20;99.90;;;;;;6217256;23;20160;-61
2022/02/07 00:28:09;;;;;;;1.10;0.50;;;2.20;99.90;;;;;;6217752;23;20203;-61
2022/02/07 00:30:35;;;;;;;1.67;0.43;;;2.20;99.90;;;;;;6217200;23;20176;-61
2022/02/07 00:33:00;;;;;;;2.35;0.50;;;2.20;99.90;;;;;;6217156;23;20431;-61
2022/02/07 00:35:26;;;;;;;1.02;0.30;;;2.20;99.90;;;;;;6217239;23;20736;-61
2022/02/07 00:37:55;;;;;;;1.98;0.45;;;2.20;99.90;;;;;;6217215;23;20176;-61
2022/02/07 00:42:57;;;;;;;3.08;0.63;;;2.20;99.90;;;;;;6217450;23;20160;-61
2022/02/07 00:45:39;;;;;;;1.90;0.43;;;2.20;99.90;;;;;;6217466;23;20157;-61
2022/02/07 00:48:06;;;;;;;1.75;0.52;;;2.30;99.90;;;;;;6217405;23;20211;-61
2022/02/07 00:50:33;;;;;;;2.08;0.65;;;2.30;99.90;;;;;;6216658;23;20141;-61
2022/02/07 00:52:59;;;;;;;2.47;0.85;;;2.30;99.90;;;;;;6216959;23;20151;-60
2022/02/07 00:55:25;;;;;;;1.35;0.40;;;2.30;99.90;;;;;;6217050;23;20149;-61
2022/02/07 00:57:50;;;;;;;1.52;0.50;;;2.30;99.90;;;;;;6217265;23;20179;-61
2022/02/07 01:00:16;;;;;;;2.38;0.52;;;2.40;99.90;;;;;;6217049;23;20149;-60
2022/02/07 01:02:46;;;;;;;2.28;0.30;;;2.30;99.90;;;;;;6216830;23;20499;-61
2022/02/07 01:05:12;;;;;;;1.98;0.43;;;2.40;99.90;;;;;;6216795;23;20173;-61
2022/02/07 01:07:38;;;;;;;0.30;0.20;;;2.40;99.90;;;;;;6216755;23;20137;-61
2022/02/07 01:10:04;;;;;;;2.55;0.55;;;2.30;99.90;;;;;;6217268;23;20496;-61
2022/02/07 01:20:25;;;;;;;1.40;0.40;;;2.30;99.90;;;;;;6217209;23;20195;-61
2022/02/07 01:52:49;;;;;;;5.05;0.82;;;2.40;99.90;;;;;;6217211;23;20149;-62
2022/02/07 01:55:32;;;;;;;5.13;1.25;;;2.40;99.90;;;;;;6215925;23;20129;-62
2022/02/07 01:57:58;;;;;;;2.97;0.63;;;2.50;99.90;;;;;;6216849;23;20126;-62
2022/02/07 02:00:24;;;;;;;5.97;0.65;;;2.60;99.90;;;;;;6217084;23;20183;-62
2022/02/07 02:02:50;;;;;;;2.22;0.57;;;2.60;99.90;;;;;;6218827;23;20206;-62
2022/02/07 02:05:15;;;;;;;3.03;0.50;;;2.60;99.90;;;;;;6218533;23;20164;-61
2022/02/07 02:07:42;;;;;;;3.35;0.80;;;2.70;99.90;;;;;;6216428;23;20137;-61
2022/02/07 02:10:09;;;;;;;5.88;0.77;;;2.70;99.90;;;;;;6216241;23;20549;-61
2022/02/07 02:12:41;;;;;;;3.50;0.75;;;2.80;99.90;;;;;;6217065;23;20432;-61
2022/02/07 02:18:06;;;;;;;2.25;1.13;;;2.80;99.90;;;;;;6216773;23;20555;-61
2022/02/07 02:32:39;;;;;;;5.38;0.80;;;2.90;99.90;;;;;;6216686;23;20139;-61
2022/02/07 02:46:41;;;;;;;4.65;1.00;;;2.60;99.90;;;;;;6217567;23;20170;-61
2022/02/07 02:49:06;;;;;;;2.65;0.65;;;2.50;99.90;;;;;;6217298;23;20224;-61
2022/02/07 02:51:32;;;;;;;6.20;1.27;;;2.50;99.90;;;;;;6217309;23;20227;-61
2022/02/07 02:53:58;;;;;;;3.95;0.70;;;2.50;99.90;;;;;;6217353;23;20145;-61
2022/02/07 02:56:23;;;;;;;2.90;0.85;;;2.50;99.90;;;;;;6216732;23;20149;-61
2022/02/07 02:58:49;;;;;;;2.40;0.60;;;2.50;99.90;;;;;;6216410;23;20542;-61
2022/02/07 03:01:14;;;;;;;3.42;0.68;;;2.40;99.90;;;;;;6216545;23;20220;-61
2022/02/07 03:03:40;;;;;;;7.93;1.10;;;2.40;99.90;;;;;;6216065;23;20565;-61
2022/02/07 03:06:05;;;;;;;1.90;0.65;;;2.40;99.90;;;;;;6216059;23;20164;-61
2022/02/07 03:08:31;;;;;;;5.38;0.90;;;2.40;99.90;;;;;;6216791;23;20148;-61
2022/02/07 03:11:08;;;;;;;4.65;0.88;;;2.40;99.90;;;;;;6216479;23;20149;-61
2022/02/07 03:18:57;;;;;;;1.90;0.70;;;2.40;99.90;;;;;;6218059;23;20156;-61
2022/02/07 03:21:22;;;;;;;2.97;0.47;;;2.50;99.90;;;;;;6217960;23;20553;-61
2022/02/07 03:23:48;;;;;;;5.97;0.60;;;2.50;99.90;;;;;;6218011;23;20156;-60
2022/02/07 03:26:17;;;;;;;3.85;0.60;;;2.50;99.90;;;;;;6218227;23;20690;-60
2022/02/07 03:28:42;;;;;;;4.38;0.90;;;2.50;99.90;;;;;;6218427;23;20203;-61
2022/02/07 03:31:09;;;;;;;5.57;0.57;;;2.60;99.90;;;;;;6217673;23;20156;-60
2022/02/07 03:33:36;;;;;;;4.60;0.60;;;2.60;99.90;;;;;;6218209;23;20141;-60
2022/02/07 03:36:02;;;;;;;4.88;0.82;;;2.60;99.90;;;;;;6217664;23;20180;-60
2022/02/07 03:38:27;;;;;;;7.80;0.60;;;2.60;99.90;;;;;;6217984;23;20159;-61
2022/02/07 03:40:53;;;;;;;2.58;0.60;;;2.60;99.90;;;;;;6217567;23;20549;-59
2022/02/07 03:43:18;;;;;;;3.78;1.23;;;2.70;99.90;;;;;;6217821;23;20152;-61
2022/02/07 03:45:44;;;;;;;4.72;0.90;;;2.70;99.90;;;;;;6217527;23;20169;-61
2022/02/07 03:48:09;;;;;;;1.02;0.60;;;2.70;99.90;;;;;;6217691;23;20145;-61
2022/02/07 03:50:35;;;;;;;5.25;1.13;;;2.70;99.90;;;;;;6217625;23;20145;-61
2022/02/07 03:53:01;;;;;;;5.97;1.27;;;2.70;99.90;;;;;;6217626;23;20444;-60
2022/02/07 03:55:26;;;;;;;2.25;0.80;;;2.80;99.90;;;;;;6217618;23;20145;-60
2022/02/07 03:57:52;;;;;;;4.32;1.10;;;2.70;99.90;;;;;;6217691;23;20557;-60
2022/02/07 04:00:18;;;;;;;4.55;0.68;;;2.80;99.90;;;;;;6217820;23;20149;-60
2022/02/07 04:02:48;;;;;;;6.32;0.88;;;2.80;99.90;;;;;;6218077;23;20141;-60
2022/02/07 04:07:58;;;;;;;5.88;0.85;;;2.80;99.90;;;;;;6218274;23;20191;-59
2022/02/07 04:10:25;;;;;;;3.22;0.77;;;2.80;99.90;;;;;;6217861;23;20206;-59
2022/02/07 04:12:59;;;;;;;3.97;1.10;;;2.80;99.90;;;;;;6217886;23;20221;-60
2022/02/07 04:15:24;;;;;;;5.68;0.75;;;2.70;99.90;;;;;;6216917;23;20168;-59
2022/02/07 04:18:00;;;;;;;5.80;0.90;;;2.60;99.90;;;;;;6218304;23;20452;-60
2022/02/07 04:20:26;;;;;;;3.00;0.80;;;2.60;99.90;;;;;;6218117;23;20266;-60
2022/02/07 04:22:51;;;;;;;9.27;1.20;;;2.60;99.90;;;;;;6218063;23;20446;-61
2022/02/07 04:25:17;;;;;;;5.43;1.10;;;2.60;99.90;;;;;;6217055;23;20479;-61
2022/02/07 04:27:43;;;;;;;4.65;0.90;;;2.60;99.90;;;;;;6218036;23;20149;-61
2022/02/07 04:30:10;;;;;;;4.97;1.27;;;2.60;99.90;;;;;;6217780;23;20145;-61
2022/02/07 04:32:35;;;;;;;8.40;0.93;;;2.60;99.90;;;;;;6217348;23;20271;-59
2022/02/07 04:35:01;;;;;;;5.03;0.63;;;2.50;99.90;;;;;;6217134;23;20167;-60
2022/02/07 04:37:27;;;;;;;5.07;1.25;;;2.60;99.90;;;;;;6217438;23;20172;-59
2022/02/07 04:39:53;;;;;;;11.77;1.48;;;2.50;99.90;;;;;;6217609;23;20210;-60
2022/02/07 04:42:24;;;;;;;3.13;0.88;;;2.50;99.90;;;;;;6217557;23;20141;-60
2022/02/07 04:45:43;;;;;;;2.35;0.73;;;2.40;99.90;;;;;;6217717;23;20514;-61
2022/02/07 04:53:08;;;;;;;6.88;1.35;;;2.40;99.90;;;;;;6217359;23;20248;-60
2022/02/07 04:58:11;;;;;;;5.28;0.85;;;2.40;99.90;;;;;;6217508;23;20140;-61
2022/02/07 05:00:45;;;;;;;8.40;1.10;;;2.40;99.90;;;;;;6217327;23;20133;-61
2022/02/07 05:03:19;;;;;;;7.60;0.88;;;2.40;99.90;;;;;;6216979;23;20571;-60
2022/02/07 05:13:50;;;;;;;3.63;0.80;;;2.40;99.90;;;;;;6217637;23;20136;-58
2022/02/07 05:16:28;;;;;;;7.00;1.23;;;2.50;99.90;;;;;;6217267;23;20155;-60
2022/02/07 05:18:57;;;;;;;5.30;0.75;;;2.40;99.90;;;;;;6217101;23;20191;-60
2022/02/07 05:21:23;;;;;;;7.72;1.10;;;2.50;99.90;;;;;;6216778;23;20433;-60
2022/02/07 05:23:49;;;;;;;4.75;0.70;;;2.50;99.90;;;;;;6217334;23;20246;-60
2022/02/07 05:26:15;;;;;;;4.95;1.00;;;2.60;99.90;;;;;;6216708;23;20266;-60
2022/02/07 05:28:41;;;;;;;3.13;0.90;;;2.60;99.90;;;;;;6216835;23;20141;-60
2022/02/07 05:31:08;;;;;;;4.78;1.02;;;2.70;99.90;;;;;;6216868;23;20223;-60
2022/02/07 05:33:34;;;;;;;6.22;1.02;;;2.70;99.90;;;;;;6216918;23;20545;-61
2022/02/07 05:35:59;;;;;;;5.68;1.05;;;2.70;99.90;;;;;;6216881;23;20145;-61
2022/02/07 05:38:25;;;;;;;8.68;1.17;;;2.70;99.90;;;;;;6216780;23;20145;-60
2022/02/07 05:40:57;;;;;;;5.15;0.70;;;2.80;99.90;;;;;;6216603;23;20156;-61
2022/02/07 05:43:24;;;;;;;3.75;0.70;;;2.80;99.90;;;;;;6216128;23;20155;-61
2022/02/07 05:45:50;;;;;;;5.80;1.10;;;2.80;99.90;;;;;;6216737;23;20169;-61
2022/02/07 05:48:15;;;;;;;5.22;1.10;;;2.80;99.90;;;;;;6216819;23;20447;-61
2022/02/07 05:50:41;;;;;;;4.90;1.10;;;2.80;99.90;;;;;;6216312;23;20575;-61
2022/02/07 05:53:06;;;;;;;7.95;1.13;;;2.90;99.90;;;;;;6216512;23;20164;-61
2022/02/07 05:55:32;;;;;;;4.00;0.82;;;2.90;99.90;;;;;;6216724;23;20145;-61
2022/02/07 05:57:57;;;;;;;5.47;0.80;;;2.90;99.90;;;;;;6216160;23;20145;-61
2022/02/07 06:00:23;;;;;;;4.00;0.80;;;2.90;99.90;;;;;;6216335;23;20194;-60
2022/02/07 06:02:48;;;;;;;3.03;0.90;;;3.00;99.90;;;;;;6216378;23;20144;-60
2022/02/07 06:05:14;;;;;;;6.75;1.27;;;3.10;99.90;;;;;;6216220;23;20145;-61
2022/02/07 06:07:39;;;;;;;5.20;0.85;;;3.10;99.90;;;;;;6216147;23;20149;-61
2022/02/07 06:10:06;;;;;;;6.60;1.25;;;3.20;99.90;;;;;;6216320;23;20141;-61
2022/02/07 06:12:37;;;;;;;9.57;1.63;;;3.20;99.90;;;;;;6216067;23;20580;-61
2022/02/07 06:15:03;;;;;;;5.25;1.30;;;3.30;99.90;;;;;;6216730;23;20140;-61
2022/02/07 06:17:29;;;;;;;4.90;1.05;;;3.30;99.90;;;;;;6216713;23;20180;-62
2022/02/07 06:19:54;;;;;;;6.88;1.30;;;3.40;99.90;;;;;;6216329;23;20152;-61
2022/02/07 06:22:20;;;;;;;6.93;1.23;;;3.40;99.90;;;;;;6216329;23;20149;-61
2022/02/07 06:24:46;;;;;;;8.30;1.20;;;3.50;99.90;;;;;;6215385;23;20156;-62
2022/02/07 06:27:12;;;;;;;5.70;1.10;;;3.50;99.90;;;;;;6216278;23;20196;-61
2022/02/07 06:29:38;;;;;;;7.43;1.98;;;3.60;99.90;;;;;;6216492;23;20148;-61
2022/02/07 06:32:03;;;;;;;6.03;1.23;;;3.60;99.90;;;;;;6216563;23;20156;-62
2022/02/07 06:34:29;;;;;;;5.70;0.88;;;3.70;99.90;;;;;;6217080;23;20156;-60
2022/02/07 06:36:54;;;;;;;8.35;1.27;;;3.70;99.90;;;;;;6217146;23;20148;-61
2022/02/07 06:39:20;;;;;;;3.63;0.90;;;3.70;99.90;;;;;;6217143;23;20418;-61
2022/02/07 06:41:47;;;;;;;7.25;1.30;;;3.80;99.90;;;;;;6216885;23;20148;-61
2022/02/07 06:44:12;;;;;;;7.85;1.42;;;3.80;99.90;;;;;;6217303;23;20168;-61
2022/02/07 06:46:38;;;;;;;6.68;1.50;;;3.80;99.90;;;;;;6217205;23;20172;-60
2022/02/07 06:49:03;;;;;;;14.73;1.83;;;3.90;99.90;;;;;;6219049;23;20141;-61
2022/02/07 06:51:29;;;;;;;4.75;1.10;;;3.90;99.90;;;;;;6219642;23;20152;-61
2022/02/07 06:53:54;;;;;;;13.18;2.33;;;3.90;99.90;;;;;;6218963;23;20439;-62
2022/02/07 06:56:20;;;;;;;10.73;1.55;;;3.90;99.90;;;;;;6219736;23;20148;-61
2022/02/07 06:58:47;;;;;;;5.80;1.77;;;3.90;99.90;;;;;;6219247;23;20145;-61
2022/02/07 07:01:13;;;;;;;6.80;1.80;;;3.90;99.90;;;;;;6218990;23;20168;-61
2022/02/07 07:03:40;;;;;;;10.55;1.48;;;3.90;99.90;;;;;;6219771;23;20232;-61
2022/02/07 07:06:06;;;;;;;15.05;2.45;;;4.00;99.90;;;;;;6219881;23;20168;-61
2022/02/07 07:08:36;;;;;;;10.30;1.75;;;3.90;99.90;;;;;;6219336;23;20223;-61
2022/02/07 07:11:02;;;;;;;10.60;1.65;;;3.90;99.90;;;;;;6219270;23;20122;-61
2022/02/07 07:13:38;;;;;;;13.25;1.92;;;3.90;99.90;;;;;;6220006;23;20141;-61
2022/02/07 07:16:15;;;;;;;14.10;1.75;;;3.90;99.90;;;;;;6219830;23;20136;-61
2022/02/07 07:18:40;;;;;;;7.63;1.50;;;3.80;99.90;;;;;;6217917;23;20141;-61
2022/02/07 07:21:07;;;;;;;20.10;2.85;;;3.90;99.90;;;;;;6219529;23;20446;-61
2022/02/07 07:23:34;;;;;;;17.73;2.80;;;3.90;99.90;;;;;;6219250;23;20145;-61
2022/02/07 07:26:00;;;;;;;10.88;2.03;;;3.90;99.90;;;;;;6218853;23;20172;-62
2022/02/07 07:28:26;;;;;;;9.70;1.60;;;3.90;99.90;;;;;;6219248;23;20224;-61
2022/02/07 07:30:55;;;;;;;12.98;3.00;;;3.90;99.90;;;;;;6219145;23;20156;-61
2022/02/07 07:33:24;;;;;;;12.20;2.55;;;3.90;99.90;;;;;;6219262;23;20140;-60
2022/02/07 07:35:49;;;;;;;9.85;2.10;;;4.00;99.90;;;;;;6218868;23;20154;-60
2022/02/07 07:38:15;;;;;;;9.80;2.20;;;4.00;99.90;;;;;;6219107;23;20176;-61
2022/02/07 07:40:41;;;;;;;14.15;2.22;;;4.00;99.90;;;;;;6219411;23;20149;-61
2022/02/07 07:43:09;;;;;;;14.30;2.53;;;4.10;99.90;;;;;;6219325;23;20145;-61
2022/02/07 07:45:42;;;;;;;11.30;2.10;;;4.20;99.90;;;;;;6219438;23;20183;-62
2022/02/07 07:48:11;;;;;;;12.50;2.50;;;4.20;99.90;;;;;;6219464;23;20167;-61
2022/02/07 07:50:52;;;;;;;8.95;1.52;;;4.30;99.90;;;;;;6218820;23;20148;-61
2022/02/07 07:53:27;;;;;;;15.13;2.80;;;4.20;99.90;;;;;;6219225;23;20129;-62
2022/02/07 08:01:36;;;;;;;16.52;2.45;;;4.30;99.90;;;;;;6218603;23;20151;-61
2022/02/07 08:04:04;;;;;;;11.13;1.85;;;4.30;99.90;;;;;;6218669;23;20140;-61
2022/02/07 08:06:36;;;;;;;10.50;2.30;;;4.30;99.90;;;;;;6218964;23;20181;-61
2022/02/07 08:11:31;;;;;;;11.43;2.30;;;4.30;99.90;;;;;;6219382;23;20152;-61
2022/02/07 08:13:58;;;;;;;12.20;1.95;;;4.30;99.90;;;;;;6218796;23;20137;-61
2022/02/07 08:16:23;;;;;;;11.70;2.45;;;4.30;99.90;;;;;;6218278;23;20152;-61
2022/02/07 08:18:49;;;;;;;9.98;2.60;;;4.40;99.90;;;;;;6218212;23;20145;-60
2022/02/07 08:21:14;;;;;;;16.20;2.65;;;4.40;99.90;;;;;;6218479;23;20421;-60
2022/02/07 08:23:40;;;;;;;10.90;2.17;;;4.40;99.90;;;;;;6218074;23;20149;-60
2022/02/07 08:26:07;;;;;;;7.97;1.73;;;4.50;99.90;;;;;;6218366;23;20182;-60
2022/02/07 08:28:33;;;;;;;11.48;3.10;;;4.60;99.90;;;;;;6217990;23;20492;-61
2022/02/07 08:30:58;;;;;;;9.40;1.85;;;4.60;99.90;;;;;;6218290;23;20171;-60
2022/02/07 08:33:24;;;;;;;14.68;2.55;;;4.70;99.90;;;;;;6218196;23;20468;-61
2022/02/07 08:35:50;;;;;;;18.02;2.65;;;4.70;99.90;;;;;;6218727;23;20141;-61
2022/02/07 08:38:16;;;;;;;17.17;2.88;;;4.70;99.90;;;;;;6218532;23;20580;-61
2022/02/07 08:40:41;;;;;;;14.05;2.30;;;4.70;99.90;;;;;;6218980;23;20156;-61
2022/02/07 08:43:07;;;;;;;14.95;2.20;;;4.80;99.90;;;;;;6218900;23;20149;-61
2022/02/07 08:45:33;;;;;;;12.15;2.72;;;4.70;99.90;;;;;;6219164;23;20164;-60
2022/02/07 08:47:58;;;;;;;12.35;2.60;;;4.70;99.90;;;;;;6218877;23;20156;-61
2022/02/07 08:50:28;;;;;;;21.20;2.90;;;4.70;99.90;;;;;;6218803;23;20216;-60
2022/02/07 08:52:56;;;;;;;9.75;2.15;;;4.70;99.90;;;;;;6218656;23;20141;-60
2022/02/07 08:55:30;;;;;;;13.77;2.70;;;4.70;99.90;;;;;;6218544;23;20151;-60
2022/02/07 08:58:01;;;;;;;15.88;2.70;;;4.70;99.90;;;;;;6218631;23;20216;-60
2022/02/07 09:03:21;;;;;;;11.68;2.67;;;4.80;99.90;;;;;;6218335;23;20168;-61
2022/02/07 09:08:50;;;;;;;10.30;2.45;;;4.80;99.90;;;;;;6217820;23;20136;-62
2022/02/07 09:11:15;;;;;;;12.93;2.25;;;4.90;99.90;;;;;;6217643;23;20145;-61
2022/02/07 09:13:44;;;;;;;15.43;2.63;;;4.80;99.90;;;;;;6217947;23;20542;-61
2022/02/07 09:18:38;;;;;;;14.45;2.92;;;4.90;99.90;;;;;;6218514;23;20308;-61
2022/02/07 09:21:07;;;;;;;11.00;2.20;;;4.90;99.90;;;;;;6218752;23;20176;-61
2022/02/07 09:23:35;;;;;;;13.45;2.90;;;4.90;99.90;;;;;;6218700;23;20240;-61
2022/02/07 09:26:00;;;;;;;9.38;2.25;;;4.90;99.90;;;;;;6218254;23;20639;-63
2022/02/07 09:28:27;;;;;;;15.32;3.22;;;4.90;99.90;;;;;;6218152;23;20161;-61
2022/02/07 09:30:53;;;;;;;11.60;2.10;;;4.90;99.90;;;;;;6217953;23;20581;-61
2022/02/07 09:33:20;;;;;;;16.83;2.78;;;4.90;99.90;;;;;;6218495;23;20152;-61
2022/02/07 09:35:47;;;;;;;11.70;2.65;;;4.90;99.90;;;;;;6217992;23;20557;-61
2022/02/07 09:38:12;;;;;;;11.35;2.47;;;4.90;99.90;;;;;;6218584;23;20199;-61
2022/02/07 09:40:39;;;;;;;12.38;2.33;;;4.90;99.90;;;;;;6218043;23;20148;-61
2022/02/07 09:43:05;;;;;;;12.30;2.65;;;4.90;99.90;;;;;;6217846;23;20152;-61
2022/02/07 09:45:37;;;;;;;17.77;2.75;;;5.00;99.90;;;;;;6217975;23;20472;-61
2022/02/07 09:48:06;;;;;;;11.32;2.83;;;5.00;99.90;;;;;;6217701;23;20125;-61
2022/02/07 09:50:32;;;;;;;16.00;2.58;;;5.00;99.90;;;;;;6217840;23;20441;-61
2022/02/07 09:52:58;;;;;;;14.30;2.20;;;5.00;99.90;;;;;;6217753;23;20149;-61
2022/02/07 09:55:24;;;;;;;18.75;3.35;;;5.00;99.90;;;;;;6217200;23;20610;-61
2022/02/07 09:57:52;;;;;;;20.02;3.35;;;5.00;99.90;;;;;;6217454;23;20145;-61
2022/02/07 10:00:21;;;;;;;14.07;2.45;;;5.10;99.90;;;;;;6216306;23;20228;-61
2022/02/07 10:02:52;;;;;;;11.73;3.60;;;5.10;99.90;;;;;;6217669;23;20496;-61
2022/02/07 10:05:26;;;;;;;13.88;3.05;;;5.10;99.90;;;;;;6217706;23;20163;-61
2022/02/07 10:08:09;;;;;;;9.13;2.13;;;5.10;99.90;;;;;;6217180;23;20156;-60
2022/02/07 10:10:52;;;;;;;9.73;2.17;;;5.10;99.90;;;;;;6217280;23;20125;-61
2022/02/07 10:13:34;;;;;;;11.60;2.83;;;5.10;99.90;;;;;;6217689;23;20206;-61
2022/02/07 10:16:12;;;;;;;17.42;3.15;;;5.10;99.90;;;;;;6216944;23;20129;-61
2022/02/07 10:18:55;;;;;;;18.63;3.47;;;5.10;99.90;;;;;;6217437;23;20140;-60
2022/02/07 10:21:35;;;;;;;17.17;2.88;;;5.20;99.90;;;;;;6217752;23;20153;-60
2022/02/07 10:38:02;;;;;;;17.50;3.00;;;5.40;99.90;;;;;;6215759;23;20144;-61
2022/02/07 10:40:54;;;;;;;15.57;3.28;;;5.30;99.90;;;;;;6217032;23;20213;-61
2022/02/07 10:43:33;;;;;;;18.92;3.50;;;5.30;99.90;;;;;;6216776;23;20133;-60
2022/02/07 10:46:13;;;;;;;16.50;2.85;;;5.30;99.90;;;;;;6216306;23;20442;-60
2022/02/07 10:48:45;;;;;;;14.63;3.25;;;5.40;99.90;;;;;;6216987;23;20133;-61
2022/02/07 10:51:25;;;;;;;9.98;2.35;;;5.40;99.90;;;;;;6217096;23;20145;-61
2022/02/07 10:53:56;;;;;;;15.85;2.97;;;5.40;99.90;;;;;;6217872;23;20239;-62
2022/02/07 10:56:26;;;;;;;10.07;2.35;;;5.40;99.90;;;;;;6216607;23;20145;-62
2022/02/07 10:58:54;;;;;;;16.42;3.40;;;5.40;99.90;;;;;;6217608;23;20198;-60
2022/02/07 11:01:32;;;;;;;13.27;3.17;;;5.40;99.90;;;;;;6217043;23;20233;-62
2022/02/07 11:04:04;;;;;;;17.17;3.90;;;5.40;99.90;;;;;;6217436;23;20133;-62
2022/02/07 11:06:38;;;;;;;15.50;3.45;;;5.50;99.90;;;;;;6216156;23;20161;-62
2022/02/07 11:09:12;;;;;;;11.70;2.80;;;5.50;99.90;;;;;;6217118;23;20131;-62
2022/02/07 11:12:07;;;;;;;13.68;3.25;;;5.50;99.90;;;;;;6217003;23;20164;-61
2022/02/07 11:17:30;;;;;;;8.55;2.03;;;5.50;99.90;;;;;;6216056;23;20136;-61
2022/02/07 11:21:22;;;;;;;15.77;2.60;;;5.40;99.90;;;;;;6216522;23;20216;-60
2022/02/07 11:28:22;;;;;;;9.80;2.22;;;5.40;99.90;;;;;;6217034;23;20151;-62
2022/02/07 11:30:59;;;;;;;11.63;2.50;;;5.40;99.90;;;;;;6216549;23;20156;-62
2022/02/07 11:36:28;;;;;;;8.00;2.03;;;5.50;99.90;;;;;;6217683;23;20160;-62
2022/02/07 11:38:59;;;;;;;10.88;2.45;;;5.50;99.90;;;;;;6218204;23;20227;-62
2022/02/07 11:41:24;;;;;;;11.52;2.40;;;5.50;99.90;;;;;;6218430;23;20140;-61
2022/02/07 11:43:50;;;;;;;9.88;2.60;;;5.40;99.90;;;;;;6218388;23;20146;-62
2022/02/07 11:46:15;;;;;;;9.43;2.50;;;5.40;99.90;;;;;;6218118;23;20173;-62
2022/02/07 11:48:46;;;;;;;9.23;2.63;;;5.40;99.90;;;;;;6218483;23;20151;-61
2022/02/07 11:51:18;;;;;;;11.10;2.30;;;5.30;99.90;;;;;;6218693;23;20129;-60
2022/02/07 11:54:04;;;;;;;9.98;2.47;;;5.30;99.90;;;;;;6218598;23;20164;-61
2022/02/07 11:56:41;;;;;;;10.07;2.17;;;5.30;99.90;;;;;;6217778;23;20218;-62
2022/02/07 11:59:39;;;;;;;13.77;2.42;;;5.30;99.90;;;;;;6218768;23;20140;-61
2022/02/07 12:02:21;;;;;;;8.73;1.95;;;5.30;99.90;;;;;;6218828;23;20494;-61
2022/02/07 12:04:48;;;;;;;8.48;1.83;;;5.30;99.90;;;;;;6217962;23;20128;-60
2022/02/07 12:07:25;;;;;;;13.40;2.00;;;5.30;99.90;;;;;;6218503;23;20260;-61
2022/02/07 12:10:03;;;;;;;11.45;2.33;;;5.30;99.90;;;;;;6218132;23;20266;-60
2022/02/07 12:12:49;;;;;;;16.27;2.90;;;5.30;99.90;;;;;;6218441;23;20141;-62
2022/02/07 12:15:26;;;;;;;8.45;2.00;;;5.30;99.90;;;;;;6218654;23;20133;-61
2022/02/07 12:17:57;;;;;;;11.13;2.33;;;5.30;99.90;;;;;;6218950;23;20132;-61
2022/02/07 12:20:24;;;;;;;14.88;2.75;;;5.30;99.90;;;;;;6218399;23;20640;-61
2022/02/07 12:22:55;;;;;;;13.40;2.65;;;5.30;99.90;;;;;;6218173;23;20137;-60
2022/02/07 12:25:49;;;;;;;13.27;2.65;;;5.30;99.90;;;;;;6218404;23;20125;-61
2022/02/07 12:28:49;;;;;;;12.60;2.55;;;5.30;99.90;;;;;;6218511;23;20192;-60
2022/02/07 12:31:20;;;;;;;10.88;2.70;;;5.30;99.90;;;;;;6217906;23;20608;-60
2022/02/07 12:33:54;;;;;;;13.30;2.13;;;5.30;99.90;;;;;;6218920;23;20134;-59
2022/02/07 12:36:23;;;;;;;9.48;2.70;;;5.40;99.90;;;;;;6218296;23;20172;-60
2022/02/07 12:38:49;;;;;;;10.20;2.63;;;5.30;99.90;;;;;;6218729;23;20170;-60
2022/02/07 12:41:18;;;;;;;12.60;2.35;;;5.30;99.90;;;;;;6218206;23;20586;-60
2022/02/07 12:43:46;;;;;;;12.55;2.60;;;5.30;99.90;;;;;;6218109;23;20144;-59
2022/02/07 12:46:15;;;;;;;14.05;2.17;;;5.40;99.90;;;;;;6217256;23;20169;-61
2022/02/07 12:48:50;;;;;;;13.90;2.53;;;5.30;99.90;;;;;;6217824;23;20148;-61
2022/02/07 12:51:17;;;;;;;16.17;2.47;;;5.30;99.90;;;;;;6218093;23;20136;-60
2022/02/07 12:53:43;;;;;;;9.68;3.10;;;5.30;99.90;;;;;;6218241;23;20160;-60
2022/02/07 12:56:09;;;;;;;10.73;2.65;;;5.40;99.90;;;;;;6217032;23;20153;-60
2022/02/07 12:58:42;;;;;;;11.70;2.92;;;5.40;99.90;;;;;;6218424;23;20156;-59
2022/02/07 13:01:18;;;;;;;9.48;2.75;;;5.40;99.90;;;;;;6217580;23;20129;-61
2022/02/07 13:04:11;;;;;;;16.80;3.10;;;5.40;99.90;;;;;;6218277;23;20149;-60
2022/02/07 13:06:43;;;;;;;14.48;2.78;;;5.50;99.90;;;;;;6217793;23;20157;-60
2022/02/07 13:09:18;;;;;;;12.30;2.88;;;5.50;99.90;;;;;;6218430;23;20152;-62
2022/02/07 13:11:48;;;;;;;18.35;3.38;;;5.50;99.90;;;;;;6218393;23;20141;-61
2022/02/07 13:14:15;;;;;;;13.23;2.90;;;5.50;99.90;;;;;;6218386;23;20484;-62
2022/02/07 13:16:41;;;;;;;19.05;3.65;;;5.60;99.90;;;;;;6217925;23;20279;-61
2022/02/07 13:19:09;;;;;;;15.27;3.33;;;5.60;99.90;;;;;;6217464;23;20149;-61
2022/02/07 13:21:43;;;;;;;13.48;3.13;;;5.60;99.90;;;;;;6217366;23;20524;-61
2022/02/07 13:24:09;;;;;;;13.98;2.78;;;5.60;99.90;;;;;;6217552;23;20422;-62
2022/02/07 13:26:36;;;;;;;11.63;2.67;;;5.60;99.90;;;;;;6218024;23;20173;-62
2022/02/07 13:29:03;;;;;;;8.30;2.60;;;5.70;99.90;;;;;;6218534;23;20153;-62
2022/02/07 13:31:29;;;;;;;8.77;2.45;;;5.70;99.90;;;;;;6217963;23;20240;-63
2022/02/07 13:33:54;;;;;;;13.77;2.42;;;5.70;99.90;;;;;;6218305;23;20460;-62
2022/02/07 13:36:27;;;;;;;12.10;2.72;;;5.70;99.90;;;;;;6217219;23;20210;-61
2022/02/07 13:39:01;;;;;;;15.55;3.55;;;5.70;99.90;;;;;;6218587;23;20187;-62
2022/02/07 13:41:26;;;;;;;12.48;2.63;;;5.70;99.90;;;;;;6218701;23;20283;-61
2022/02/07 13:43:52;;;;;;;16.92;3.45;;;5.70;99.90;;;;;;6217640;23;20220;-61
2022/02/07 13:46:17;;;;;;;14.00;2.83;;;5.80;99.90;;;;;;6217949;23;20177;-61
2022/02/07 13:48:45;;;;;;;15.27;2.75;;;5.80;99.90;;;;;;6217753;23;20133;-62
2022/02/07 13:51:11;;;;;;;17.08;3.38;;;5.90;99.90;;;;;;6216796;23;20164;-62
2022/02/07 13:53:38;;;;;;;12.68;2.90;;;6.00;99.90;;;;;;6218024;23;20428;-60
2022/02/07 13:56:04;;;;;;;16.98;3.22;;;6.00;99.90;;;;;;6217657;23;20211;-62
2022/02/07 13:58:29;;;;;;;17.10;3.13;;;6.10;99.90;;;;;;6217785;23;20595;-61
2022/02/07 14:00:56;;;;;;;15.70;2.95;;;6.10;99.90;;;;;;6217971;23;20219;-61
2022/02/07 14:03:32;;;;;;;14.50;3.20;;;6.10;99.90;;;;;;6217864;23;20545;-62
2022/02/07 14:06:06;;;;;;;13.73;2.80;;;6.10;99.90;;;;;;6217942;23;20192;-61
2022/02/07 14:08:55;;;;;;;11.15;2.55;;;6.10;99.90;;;;;;6217695;23;20136;-62
2022/02/07 14:11:24;;;;;;;18.58;3.35;;;6.00;99.90;;;;;;6217995;23;20129;-61
2022/02/07 14:13:52;;;;;;;12.75;3.22;;;6.00;99.90;;;;;;6217548;23;20149;-61
2022/02/07 14:16:18;;;;;;;14.18;3.22;;;6.00;99.90;;;;;;6217959;23;20152;-61
2022/02/07 14:18:46;;;;;;;12.85;2.20;;;6.00;99.90;;;;;;6217551;23;20155;-64
2022/02/07 14:21:13;;;;;;;11.20;3.08;;;6.00;99.90;;;;;;6218331;23;20149;-61
2022/02/07 14:23:40;;;;;;;14.70;3.33;;;6.00;99.90;;;;;;6217742;23;20149;-60
2022/02/07 14:26:08;;;;;;;15.23;2.55;;;6.10;99.90;;;;;;6218056;23;20180;-60
2022/02/07 14:28:33;;;;;;;12.43;2.45;;;6.10;99.90;;;;;;6218334;23;20171;-63
2022/02/07 14:30:59;;;;;;;17.05;2.78;;;6.10;99.90;;;;;;6217983;23;20153;-61
2022/02/07 14:33:25;;;;;;;12.77;3.42;;;6.10;99.90;;;;;;6217587;23;20439;-61
2022/02/07 14:35:51;;;;;;;18.80;3.40;;;6.10;99.90;;;;;;6217338;23;20159;-61
2022/02/07 14:38:17;;;;;;;9.50;2.88;;;6.10;99.90;;;;;;6217806;23;20236;-61
2022/02/07 14:40:44;;;;;;;14.95;2.70;;;6.10;99.90;;;;;;6217773;23;20214;-61
2022/02/07 14:43:14;;;;;;;17.23;3.67;;;6.10;99.90;;;;;;6217252;23;20557;-62
2022/02/07 14:45:53;;;;;;;17.50;3.08;;;6.10;99.90;;;;;;6217552;23;20129;-61
2022/02/07 14:48:19;;;;;;;14.40;2.70;;;6.10;99.90;;;;;;6216885;23;20129;-62
2022/02/07 14:50:44;;;;;;;10.57;2.45;;;6.10;99.90;;;;;;6217807;23;20172;-63
2022/02/07 14:53:13;;;;;;;13.48;2.58;;;6.10;99.90;;;;;;6217766;23;20172;-60
2022/02/07 14:55:39;;;;;;;12.07;2.50;;;6.10;99.90;;;;;;6218347;23;20144;-61
2022/02/07 14:58:05;;;;;;;14.73;3.35;;;6.10;99.90;;;;;;6222242;23;20137;-61
2022/02/07 15:00:31;;;;;;;16.38;3.28;;;6.10;99.90;;;;;;6224595;23;20447;-61
2022/02/07 15:02:58;;;;;;;13.65;2.63;;;6.10;99.90;;;;;;6216924;23;20141;-61
2022/02/07 15:05:24;;;;;;;8.63;2.55;;;6.10;99.90;;;;;;6217839;23;20168;-61
2022/02/07 15:07:50;;;;;;;15.48;3.35;;;6.10;99.90;;;;;;6217270;23;20145;-61
2022/02/07 15:10:17;;;;;;;11.77;2.75;;;6.10;99.90;;;;;;6219256;23;20436;-61
2022/02/07 15:12:43;;;;;;;12.30;2.17;;;6.10;99.90;;;;;;6219635;23;20141;-62
2022/02/07 15:15:09;;;;;;;13.32;3.10;;;6.00;99.90;;;;;;6219467;23;20457;-62